createdAt,value
2023-02-08T00:00:58.130Z,0.60
2023-02-08T00:03:25.905Z,0.38
2023-02-08T00:05:56.174Z,0.60
2023-02-08T00:10:51.459Z,0.55
2023-02-08T00:13:19.585Z,0.82
2023-02-08T00:15:47.673Z,0.65
2023-02-08T00:18:15.618Z,0.80
2023-02-08T00:20:44.281Z,0.55
2023-02-08T00:23:13.578Z,0.85
2023-02-08T00:25:41.926Z,0.63
2023-02-08T00:28:13.909Z,0.93
2023-02-08T00:30:42.254Z,0.40
2023-02-08T00:33:10.261Z,0.80
2023-02-08T00:35:37.981Z,0.75
2023-02-08T00:38:05.689Z,0.65
2023-02-08T00:40:33.285Z,0.40
2023-02-08T00:43:00.878Z,0.40
2023-02-08T00:45:28.572Z,0.50
2023-02-08T00:47:56.219Z,0.50
2023-02-08T00:50:23.901Z,0.32
2023-02-08T00:52:51.617Z,0.40
2023-02-08T00:55:19.316Z,0.60
2023-02-08T00:57:47.055Z,0.60
2023-02-08T01:00:14.885Z,0.60
2023-02-08T01:02:42.748Z,0.57
2023-02-08T01:05:10.723Z,0.45
2023-02-08T01:07:38.964Z,0.50
2023-02-08T01:10:07.407Z,0.70
2023-02-08T01:12:35.610Z,0.60
2023-02-08T01:15:03.136Z,0.60
2023-02-08T01:17:30.841Z,0.40
2023-02-08T01:19:58.502Z,0.30
2023-02-08T01:22:26.202Z,0.40
2023-02-08T01:24:54.112Z,0.70
2023-02-08T01:27:21.847Z,0.60
2023-02-08T01:29:49.569Z,0.82
2023-02-08T01:32:17.312Z,0.60
2023-02-08T01:34:45.008Z,0.40
2023-02-08T01:37:12.637Z,0.50
2023-02-08T01:39:40.391Z,0.63
2023-02-08T01:42:08.114Z,0.40
2023-02-08T01:45:13.023Z,0.50
2023-02-08T01:47:40.728Z,0.38
2023-02-08T01:50:08.946Z,0.40
2023-02-08T01:52:36.695Z,0.40
2023-02-08T01:55:11.562Z,0.57
2023-02-08T01:57:38.979Z,0.47
2023-02-08T02:00:18.448Z,0.60
2023-02-08T02:02:49.087Z,0.50
2023-02-08T02:05:17.722Z,0.63
2023-02-08T02:07:45.702Z,0.32
2023-02-08T02:10:29.986Z,0.45
2023-02-08T02:13:02.703Z,0.50
2023-02-08T02:15:30.446Z,0.55
2023-02-08T02:17:58.239Z,0.57
2023-02-08T02:20:47.040Z,0.40
2023-02-08T02:26:20.253Z,0.40
2023-02-08T02:28:47.707Z,0.50
2023-02-08T02:31:49.205Z,0.57
2023-02-08T02:34:29.955Z,0.68
2023-02-08T02:37:34.257Z,0.50
2023-02-08T02:40:15.822Z,0.50
2023-02-08T02:43:35.320Z,0.20
2023-02-08T02:46:30.021Z,0.63
2023-02-08T02:49:02.703Z,0.52
2023-02-08T02:51:36.199Z,0.50
2023-02-08T02:54:34.165Z,0.65
2023-02-08T02:57:05.849Z,0.45
2023-02-08T02:59:37.814Z,0.35
2023-02-08T03:02:05.423Z,0.40
2023-02-08T03:04:35.762Z,0.60
2023-02-08T03:07:21.256Z,0.40
2023-02-08T03:10:14.273Z,0.90
2023-02-08T03:13:05.516Z,0.40
2023-02-08T03:15:58.591Z,0.50
2023-02-08T03:18:30.561Z,0.50
2023-02-08T03:21:23.046Z,0.70
2023-02-08T03:24:18.520Z,0.52
2023-02-08T03:27:03.858Z,0.88
2023-02-08T03:29:49.003Z,0.80
2023-02-08T03:32:16.570Z,0.40
2023-02-08T03:34:44.720Z,0.50
2023-02-08T03:37:35.213Z,0.50
2023-02-08T03:40:14.812Z,0.70
2023-02-08T03:42:43.082Z,0.50
2023-02-08T03:45:18.672Z,0.90
2023-02-08T03:47:49.745Z,0.40
2023-02-08T03:50:18.796Z,0.52
2023-02-08T03:52:50.971Z,0.28
2023-02-08T03:55:28.463Z,0.57
2023-02-08T03:58:01.247Z,0.30
2023-02-08T04:00:30.877Z,0.85
2023-02-08T04:03:04.440Z,0.40
2023-02-08T04:05:31.810Z,0.52
2023-02-08T04:07:59.270Z,1.40
2023-02-08T04:10:26.709Z,0.70
2023-02-08T04:12:54.477Z,0.73
2023-02-08T04:15:22.221Z,1.02
2023-02-08T04:17:49.879Z,0.60
2023-02-08T04:20:17.810Z,0.82
2023-02-08T04:22:45.189Z,0.65
2023-02-08T04:25:12.705Z,0.45
2023-02-08T04:27:40.360Z,0.88
2023-02-08T04:30:08.061Z,0.77
2023-02-08T04:32:35.536Z,1.05
2023-02-08T04:35:03.116Z,0.50
2023-02-08T04:37:30.767Z,0.57
2023-02-08T04:39:59.730Z,0.70
2023-02-08T04:42:27.158Z,0.60
2023-02-08T04:44:54.441Z,0.50
2023-02-08T04:47:22.096Z,0.52
2023-02-08T04:49:51.720Z,0.70
2023-02-08T04:52:19.366Z,0.50
2023-02-08T04:54:47.269Z,1.05
2023-02-08T04:57:15.368Z,0.55
2023-02-08T04:59:42.975Z,0.75
2023-02-08T05:02:10.516Z,0.63
2023-02-08T05:04:37.773Z,0.60
2023-02-08T05:07:05.469Z,0.90
2023-02-08T05:09:33.085Z,0.95
2023-02-08T05:12:00.798Z,0.57
2023-02-08T05:14:28.930Z,0.93
2023-02-08T05:16:56.466Z,0.70
2023-02-08T05:19:24.040Z,0.85
2023-02-08T05:21:51.630Z,1.42
2023-02-08T05:24:19.011Z,0.75
2023-02-08T05:26:46.706Z,0.80
2023-02-08T05:29:15.389Z,0.65
2023-02-08T05:31:43.197Z,1.17
2023-02-08T05:34:10.696Z,1.00
2023-02-08T05:36:38.325Z,1.23
2023-02-08T05:39:06.141Z,0.95
2023-02-08T05:41:33.668Z,0.90
2023-02-08T05:44:01.250Z,3.15
2023-02-08T05:46:28.545Z,0.90
2023-02-08T05:48:56.338Z,3.13
2023-02-08T05:51:23.872Z,0.90
2023-02-08T05:53:51.318Z,2.28
2023-02-08T05:56:18.870Z,1.88
2023-02-08T05:58:46.033Z,1.08
2023-02-08T06:01:14.205Z,3.20
2023-02-08T06:03:41.925Z,2.45
2023-02-08T06:06:11.347Z,0.95
2023-02-08T06:08:39.610Z,1.10
2023-02-08T06:11:07.999Z,1.13
2023-02-08T06:13:36.405Z,1.00
2023-02-08T06:16:03.666Z,2.15
2023-02-08T06:18:32.351Z,1.23
2023-02-08T06:20:59.799Z,1.83
2023-02-08T06:23:27.552Z,1.75
2023-02-08T06:25:55.233Z,1.67
2023-02-08T06:28:22.799Z,2.72
2023-02-08T06:30:51.316Z,2.63
2023-02-08T06:33:19.326Z,3.08
2023-02-08T06:35:47.951Z,1.75
2023-02-08T06:38:15.637Z,1.98
2023-02-08T06:40:43.272Z,1.83
2023-02-08T06:43:10.747Z,2.78
2023-02-08T06:45:38.215Z,1.92
2023-02-08T06:48:06.065Z,2.30
2023-02-08T06:50:33.629Z,2.75
2023-02-08T06:53:01.347Z,3.10
2023-02-08T06:55:28.737Z,2.97
2023-02-08T06:57:56.848Z,2.03
2023-02-08T07:00:24.458Z,2.90
2023-02-08T07:02:52.692Z,2.75
2023-02-08T07:05:20.565Z,3.55
2023-02-08T07:07:49.153Z,3.65
2023-02-08T07:10:17.625Z,3.42
2023-02-08T07:12:44.984Z,3.38
2023-02-08T07:15:13.747Z,3.00
2023-02-08T07:17:41.432Z,3.80
2023-02-08T07:20:12.046Z,2.78
2023-02-08T07:22:42.744Z,3.45
2023-02-08T07:25:10.228Z,4.63
2023-02-08T07:27:40.183Z,3.67
2023-02-08T07:30:10.748Z,2.78
2023-02-08T07:32:38.500Z,3.78
2023-02-08T07:35:06.232Z,3.17
2023-02-08T07:37:34.077Z,5.55
2023-02-08T07:40:01.848Z,3.80
2023-02-08T07:42:29.525Z,5.63
2023-02-08T07:44:57.664Z,6.63
2023-02-08T07:47:25.028Z,4.53
2023-02-08T07:49:52.689Z,4.00
2023-02-08T07:52:20.316Z,2.92
2023-02-08T07:54:47.651Z,5.68
2023-02-08T07:57:21.236Z,8.82
2023-02-08T07:59:49.023Z,5.30
2023-02-08T08:02:16.718Z,5.45
2023-02-08T08:04:44.259Z,4.80
2023-02-08T08:07:11.771Z,3.35
2023-02-08T08:09:39.762Z,4.65
2023-02-08T08:12:07.460Z,3.90
2023-02-08T08:14:35.147Z,5.32
2023-02-08T08:17:03.252Z,3.33
2023-02-08T08:19:30.822Z,2.95
2023-02-08T08:22:00.751Z,4.70
2023-02-08T08:24:28.702Z,5.57
2023-02-08T08:26:56.267Z,4.82
2023-02-08T08:29:25.835Z,4.38
2023-02-08T08:31:53.666Z,5.25
2023-02-08T08:34:29.831Z,3.58
2023-02-08T08:36:58.532Z,3.85
2023-02-08T08:39:29.458Z,2.25
2023-02-08T08:42:00.891Z,4.82
2023-02-08T08:44:29.047Z,4.47
2023-02-08T08:46:57.114Z,4.80
2023-02-08T08:49:25.516Z,2.50
2023-02-08T08:51:52.773Z,5.70
2023-02-08T08:54:20.852Z,2.45
2023-02-08T08:56:48.915Z,6.03
2023-02-08T08:59:16.514Z,2.72
2023-02-08T09:01:44.173Z,5.07
2023-02-08T09:04:12.207Z,3.58
2023-02-08T09:06:39.815Z,3.60
2023-02-08T09:09:07.474Z,3.53
2023-02-08T09:11:35.051Z,6.03
2023-02-08T09:14:04.719Z,2.95
2023-02-08T09:16:33.070Z,4.53
2023-02-08T09:19:07.657Z,5.75
2023-02-08T09:21:35.282Z,2.17
2023-02-08T09:24:06.057Z,7.07
2023-02-08T09:26:34.028Z,3.63
2023-02-08T09:29:01.583Z,6.20
2023-02-08T09:31:31.821Z,5.97
2023-02-08T09:34:01.016Z,6.38
2023-02-08T09:36:30.287Z,2.83
2023-02-08T09:39:01.874Z,8.23
2023-02-08T09:42:08.174Z,12.27
2023-02-08T09:45:13.148Z,5.88
2023-02-08T09:47:50.984Z,6.60
2023-02-08T09:50:27.826Z,4.20
2023-02-08T09:53:15.865Z,5.75
2023-02-08T09:55:59.999Z,2.22
2023-02-08T09:58:36.865Z,5.65
2023-02-08T10:01:07.711Z,4.88
2023-02-08T10:03:42.603Z,4.28
2023-02-08T10:06:12.559Z,5.55
2023-02-08T10:08:40.677Z,7.68
2023-02-08T10:11:12.300Z,4.55
2023-02-08T10:14:11.433Z,7.95
2023-02-08T10:17:01.104Z,9.10
2023-02-08T10:19:44.321Z,7.80
2023-02-08T10:22:31.542Z,6.50
2023-02-08T10:25:17.751Z,5.20
2023-02-08T10:28:19.717Z,6.65
2023-02-08T10:30:53.105Z,2.35
2023-02-08T10:33:33.558Z,6.28
2023-02-08T10:36:01.640Z,5.68
2023-02-08T10:38:45.487Z,5.78
2023-02-08T10:41:19.978Z,5.82
2023-02-08T10:43:54.416Z,5.45
2023-02-08T10:46:32.892Z,3.55
2023-02-08T10:49:28.003Z,7.72
2023-02-08T10:51:56.006Z,6.15
2023-02-08T10:54:23.511Z,4.47
2023-02-08T10:57:02.557Z,5.05
2023-02-08T10:59:32.572Z,4.32
2023-02-08T11:02:00.325Z,7.50
2023-02-08T11:04:28.293Z,3.25
2023-02-08T11:06:56.150Z,6.70
2023-02-08T11:09:31.117Z,2.53
2023-02-08T11:12:03.257Z,5.55
2023-02-08T11:14:47.290Z,3.20
2023-02-08T11:17:34.110Z,3.22
2023-02-08T11:20:01.934Z,3.38
2023-02-08T11:22:34.540Z,2.75
2023-02-08T11:25:08.362Z,3.88
2023-02-08T11:27:42.462Z,4.05
2023-02-08T11:30:16.301Z,4.75
2023-02-08T11:32:46.620Z,3.13
2023-02-08T11:35:21.915Z,3.20
2023-02-08T11:37:59.759Z,2.92
2023-02-08T11:40:42.798Z,3.58
2023-02-08T11:43:29.078Z,3.80
2023-02-08T11:45:59.812Z,3.33
2023-02-08T11:48:52.165Z,3.10
2023-02-08T11:51:40.276Z,1.67
2023-02-08T11:54:27.984Z,6.10
2023-02-08T11:57:11.905Z,4.63
2023-02-08T11:59:39.553Z,4.68
2023-02-08T12:02:34.825Z,5.13
2023-02-08T12:05:02.806Z,4.57
2023-02-08T12:07:56.231Z,3.45
2023-02-08T12:10:42.795Z,6.53
2023-02-08T12:13:22.633Z,4.03
2023-02-08T12:16:32.989Z,5.10
2023-02-08T12:19:29.012Z,3.53
2023-02-08T12:22:25.301Z,4.80
2023-02-08T12:24:56.279Z,2.20
2023-02-08T12:27:48.662Z,3.50
2023-02-08T12:30:37.552Z,3.22
2023-02-08T12:33:52.840Z,1.52
2023-02-08T12:37:32.225Z,4.05
2023-02-08T12:40:18.444Z,3.78
2023-02-08T12:43:14.910Z,2.17
2023-02-08T12:45:55.325Z,3.75
2023-02-08T12:48:43.602Z,3.97
2023-02-08T12:51:36.577Z,2.33
2023-02-08T12:54:50.207Z,3.42
2023-02-08T12:57:21.161Z,2.80
2023-02-08T13:00:11.884Z,3.03
2023-02-08T13:03:14.445Z,5.35
2023-02-08T13:06:01.320Z,3.58
2023-02-08T13:08:55.698Z,3.30
2023-02-08T13:12:01.960Z,3.13
2023-02-08T13:14:46.285Z,3.25
2023-02-08T13:17:22.991Z,2.33
2023-02-08T13:20:00.680Z,2.38
2023-02-08T13:22:32.280Z,1.95
2023-02-08T13:25:07.526Z,3.78
2023-02-08T13:27:35.946Z,2.47
2023-02-08T13:30:03.840Z,2.20
2023-02-08T13:32:39.142Z,2.80
2023-02-08T13:35:16.142Z,4.35
2023-02-08T13:37:43.994Z,3.60
2023-02-08T13:40:28.174Z,3.47
2023-02-08T13:43:05.182Z,3.25
2023-02-08T13:45:34.419Z,4.90
2023-02-08T13:48:11.683Z,5.45
2023-02-08T13:50:57.387Z,4.32
2023-02-08T13:53:40.831Z,6.15
2023-02-08T13:56:12.777Z,4.20
2023-02-08T13:58:49.557Z,5.18
2023-02-08T14:01:27.854Z,4.25
2023-02-08T14:04:16.875Z,7.07
2023-02-08T14:07:06.816Z,6.22
2023-02-08T14:09:44.184Z,6.25
2023-02-08T14:12:15.150Z,6.53
2023-02-08T14:14:44.530Z,5.90
2023-02-08T14:17:26.732Z,6.80
2023-02-08T14:20:04.485Z,3.92
2023-02-08T14:22:39.258Z,3.92
2023-02-08T14:25:17.847Z,3.38
2023-02-08T14:27:56.408Z,3.70
2023-02-08T14:30:36.410Z,3.00
2023-02-08T14:33:07.531Z,3.42
2023-02-08T14:35:38.025Z,4.30
2023-02-08T14:38:20.748Z,3.80
2023-02-08T14:40:55.754Z,4.05
2023-02-08T14:43:39.539Z,4.10
2023-02-08T14:46:38.067Z,4.30
2023-02-08T14:49:16.935Z,5.50
2023-02-08T14:51:53.678Z,5.47
2023-02-08T14:54:44.786Z,5.00
2023-02-08T14:57:34.696Z,4.88
2023-02-08T15:00:08.459Z,6.45
2023-02-08T15:02:46.977Z,4.53
2023-02-08T15:05:35.322Z,5.90
2023-02-08T15:08:03.507Z,4.80
2023-02-08T15:10:35.170Z,2.70
2023-02-08T15:13:06.910Z,3.35
2023-02-08T15:15:41.566Z,2.80
2023-02-08T15:18:19.023Z,3.33
2023-02-08T15:20:47.100Z,4.10
2023-02-08T15:23:22.428Z,2.75
2023-02-08T15:26:03.414Z,2.22
2023-02-08T15:28:35.005Z,2.60
2023-02-08T15:31:02.489Z,2.65
2023-02-08T15:33:30.063Z,2.45
2023-02-08T15:36:14.818Z,1.98
2023-02-08T15:38:47.927Z,2.65
2023-02-08T15:41:25.715Z,2.42
2023-02-08T15:44:14.489Z,2.45
2023-02-08T15:46:42.663Z,4.20
2023-02-08T15:49:21.538Z,2.72
2023-02-08T15:51:50.640Z,2.40
2023-02-08T15:54:21.712Z,2.22
2023-02-08T15:57:09.289Z,5.13
2023-02-08T15:59:39.957Z,2.10
2023-02-08T16:02:29.789Z,2.53
2023-02-08T16:04:59.610Z,2.15
2023-02-08T16:07:37.338Z,1.58
2023-02-08T16:10:08.448Z,3.45
2023-02-08T16:12:36.716Z,1.75
2023-02-08T16:15:04.645Z,2.45
2023-02-08T16:17:46.503Z,1.70
2023-02-08T16:20:42.407Z,2.10
2023-02-08T16:23:33.344Z,5.05
2023-02-08T16:26:40.486Z,3.72
2023-02-08T16:29:17.290Z,6.82
2023-02-08T16:31:47.847Z,2.97
2023-02-08T16:34:22.843Z,2.50
2023-02-08T16:36:52.343Z,3.45
2023-02-08T16:39:19.666Z,1.98
2023-02-08T16:42:09.625Z,2.03
2023-02-08T16:44:57.889Z,2.30
2023-02-08T16:47:36.130Z,2.05
2023-02-08T16:50:04.098Z,3.58
2023-02-08T16:52:31.764Z,1.30
2023-02-08T16:55:02.350Z,1.20
2023-02-08T16:57:40.508Z,1.77
2023-02-08T17:00:15.385Z,1.67
2023-02-08T17:02:42.906Z,2.38
2023-02-08T17:05:10.446Z,2.10
2023-02-08T17:07:38.114Z,1.65
2023-02-08T17:10:08.636Z,2.10
2023-02-08T17:12:36.196Z,2.10
2023-02-08T17:15:04.062Z,1.38
2023-02-08T17:17:34.201Z,1.45
2023-02-08T17:22:29.355Z,1.42
2023-02-08T17:24:56.795Z,1.48
2023-02-08T17:27:25.038Z,2.70
2023-02-08T17:29:52.905Z,1.90
2023-02-08T17:32:22.653Z,3.05
2023-02-08T17:34:50.317Z,1.95
2023-02-08T17:37:18.221Z,2.15
2023-02-08T17:39:45.800Z,1.50
2023-02-08T17:42:15.776Z,2.58
2023-02-08T17:44:45.689Z,2.03
2023-02-08T17:47:13.135Z,3.75
2023-02-08T17:49:40.589Z,1.90
2023-02-08T17:52:10.842Z,2.10
2023-02-08T17:54:38.394Z,1.88
2023-02-08T17:57:05.950Z,3.13
2023-02-08T17:59:33.614Z,1.40
2023-02-08T18:02:01.525Z,1.20
2023-02-08T18:04:29.367Z,1.33
2023-02-08T18:06:57.153Z,2.97
2023-02-08T18:09:24.801Z,2.05
2023-02-08T18:11:53.455Z,2.17
2023-02-08T18:14:20.851Z,1.17
2023-02-08T18:16:48.542Z,3.50
2023-02-08T18:19:16.053Z,1.58
2023-02-08T18:21:44.037Z,1.83
2023-02-08T18:24:11.967Z,1.73
2023-02-08T18:26:39.939Z,2.38
2023-02-08T18:29:07.653Z,1.58
2023-02-08T18:31:35.397Z,1.30
2023-02-08T18:34:03.005Z,0.65
2023-02-08T18:36:30.419Z,1.10
2023-02-08T18:38:58.374Z,1.23
2023-02-08T18:41:28.054Z,2.15
2023-02-08T18:43:57.703Z,1.52
2023-02-08T18:46:27.622Z,1.20
2023-02-08T18:48:55.681Z,1.60
2023-02-08T18:51:24.833Z,1.65
2023-02-08T18:53:54.760Z,1.60
2023-02-08T18:56:24.157Z,1.50
2023-02-08T18:58:56.418Z,1.85
2023-02-08T19:01:24.874Z,1.92
2023-02-08T19:03:53.445Z,1.75
2023-02-08T19:06:24.947Z,1.75
2023-02-08T19:08:55.673Z,1.33
2023-02-08T19:11:28.672Z,0.90
2023-02-08T19:13:57.997Z,1.30
2023-02-08T19:16:25.871Z,1.17
2023-02-08T19:18:53.631Z,1.35
2023-02-08T19:21:21.080Z,1.45
2023-02-08T19:23:51.931Z,2.00
2023-02-08T19:26:21.380Z,2.17
2023-02-08T19:28:49.181Z,1.65
2023-02-08T19:31:20.329Z,2.03
2023-02-08T19:33:49.975Z,1.30
2023-02-08T19:36:40.425Z,1.67
2023-02-08T19:39:08.825Z,1.27
2023-02-08T19:41:38.289Z,1.13
2023-02-08T19:44:07.475Z,1.63
2023-02-08T19:46:39.044Z,1.05
2023-02-08T19:49:07.339Z,0.85
2023-02-08T19:51:37.134Z,1.33
2023-02-08T19:54:10.251Z,1.05
2023-02-08T19:56:38.275Z,1.55
2023-02-08T19:59:07.922Z,0.95
2023-02-08T20:01:36.305Z,1.13
2023-02-08T20:04:04.269Z,0.93
2023-02-08T20:06:34.864Z,1.50
2023-02-08T20:09:02.604Z,1.20
2023-02-08T20:11:33.373Z,0.73
2023-02-08T20:14:01.268Z,1.25
2023-02-08T20:16:32.064Z,1.08
2023-02-08T20:19:00.026Z,1.10
2023-02-08T20:21:28.031Z,1.10
2023-02-08T20:23:55.595Z,1.15
2023-02-08T20:26:27.853Z,1.38
2023-02-08T20:28:57.361Z,1.67
2023-02-08T20:31:31.612Z,1.65
2023-02-08T20:34:01.137Z,0.95
2023-02-08T20:36:30.496Z,0.90
2023-02-08T20:38:58.929Z,1.10
2023-02-08T20:41:28.202Z,2.00
2023-02-08T20:43:56.025Z,1.05
2023-02-08T20:46:26.162Z,1.70
2023-02-08T20:51:26.193Z,1.20
2023-02-08T20:53:55.013Z,1.48
2023-02-08T20:56:24.899Z,1.25
2023-02-08T20:58:53.711Z,1.40
2023-02-08T21:01:27.140Z,1.25
2023-02-08T21:03:58.505Z,1.63
2023-02-08T21:06:34.484Z,1.10
2023-02-08T21:09:09.146Z,0.75
2023-02-08T21:11:37.448Z,1.15
2023-02-08T21:14:07.299Z,0.85
2023-02-08T21:16:34.865Z,0.88
2023-02-08T21:19:02.649Z,0.80
2023-02-08T21:21:30.366Z,1.20
2023-02-08T21:23:58.284Z,1.55
2023-02-08T21:26:26.629Z,1.60
2023-02-08T21:28:55.208Z,1.48
2023-02-08T21:31:24.206Z,1.15
2023-02-08T21:33:52.479Z,1.48
2023-02-08T21:36:23.069Z,2.13
2023-02-08T21:38:51.132Z,1.92
2023-02-08T21:41:24.155Z,1.73
2023-02-08T21:43:54.380Z,1.45
2023-02-08T21:46:22.426Z,1.83
2023-02-08T21:49:08.866Z,1.52
2023-02-08T21:51:55.586Z,0.73
2023-02-08T21:54:43.415Z,1.33
2023-02-08T21:57:19.656Z,2.03
2023-02-08T21:59:52.471Z,1.55
2023-02-08T22:02:23.488Z,1.60
2023-02-08T22:05:10.598Z,1.73
2023-02-08T22:07:55.301Z,2.28
2023-02-08T22:10:25.487Z,1.60
2023-02-08T22:12:55.215Z,1.45
2023-02-08T22:15:24.795Z,1.55
2023-02-08T22:17:59.257Z,1.85
2023-02-08T22:20:27.247Z,1.35
2023-02-08T22:22:55.554Z,1.48
2023-02-08T22:25:23.394Z,1.65
2023-02-08T22:27:51.131Z,1.42
2023-02-08T22:30:20.254Z,1.88
2023-02-08T22:32:50.828Z,1.23
2023-02-08T22:35:18.979Z,1.30
2023-02-08T22:37:46.733Z,2.30
2023-02-08T22:40:14.475Z,1.85
2023-02-08T22:42:42.478Z,1.33
2023-02-08T22:45:10.456Z,1.08
2023-02-08T22:47:38.167Z,2.10
2023-02-08T22:50:06.892Z,0.88
2023-02-08T22:52:35.292Z,1.02
2023-02-08T22:55:04.280Z,1.33
2023-02-08T22:57:32.661Z,1.20
2023-02-08T23:00:00.512Z,1.10
2023-02-08T23:02:28.203Z,1.20
2023-02-08T23:04:55.787Z,1.67
2023-02-08T23:07:23.543Z,3.13
2023-02-08T23:09:50.920Z,2.40
2023-02-08T23:12:19.543Z,1.85
2023-02-08T23:14:47.105Z,1.60
2023-02-08T23:17:14.723Z,3.40
2023-02-08T23:19:42.636Z,1.63
2023-02-08T23:22:10.357Z,1.55
2023-02-08T23:24:38.019Z,1.42
2023-02-08T23:27:05.892Z,3.67
2023-02-08T23:29:33.637Z,1.23
2023-02-08T23:32:01.214Z,1.08
2023-02-08T23:34:28.874Z,1.55
2023-02-08T23:36:56.648Z,2.78
2023-02-08T23:39:24.618Z,1.85
2023-02-08T23:41:52.295Z,2.05
2023-02-08T23:44:19.933Z,1.83
2023-02-08T23:46:47.714Z,1.85
2023-02-08T23:49:15.453Z,1.73
2023-02-08T23:51:43.193Z,1.27
2023-02-08T23:54:10.886Z,1.30
2023-02-08T23:56:38.576Z,1.38
2023-02-08T23:59:08.296Z,0.95
